sensor_id;sensor_type;location;lat;lon;timestamp;pressure;altitude;pressure_sealevel;temperature;humidity
54920;BME280;63804;53.120;8.764;2024-01-06T00:01:59;100397.25;;;4.15;80.84
54920;BME280;63804;53.120;8.764;2024-01-06T00:04:27;100411.72;;;4.23;80.68
54920;BME280;63804;53.120;8.764;2024-01-06T00:06:56;100414.09;;;4.27;80.73
54920;BME280;63804;53.120;8.764;2024-01-06T00:09:24;100414.97;;;4.28;80.38
54920;BME280;63804;53.120;8.764;2024-01-06T00:11:52;100407.75;;;4.15;80.87
54920;BME280;63804;53.120;8.764;2024-01-06T00:14:20;100413.16;;;4.12;80.68
54920;BME280;63804;53.120;8.764;2024-01-06T00:16:48;100420.25;;;4.10;81.18
54920;BME280;63804;53.120;8.764;2024-01-06T00:19:15;100418.56;;;3.92;81.37
54920;BME280;63804;53.120;8.764;2024-01-06T00:21:45;100416.59;;;3.97;81.88
54920;BME280;63804;53.120;8.764;2024-01-06T00:24:13;100426.44;;;4.09;81.18
54920;BME280;63804;53.120;8.764;2024-01-06T00:26:41;100429.78;;;4.11;80.99
54920;BME280;63804;53.120;8.764;2024-01-06T00:29:09;100429.03;;;4.09;80.78
54920;BME280;63804;53.120;8.764;2024-01-06T00:31:37;100432.50;;;4.10;81.16
54920;BME280;63804;53.120;8.764;2024-01-06T00:34:05;100432.34;;;4.13;80.98
54920;BME280;63804;53.120;8.764;2024-01-06T00:36:33;100433.94;;;4.15;80.70
54920;BME280;63804;53.120;8.764;2024-01-06T00:39:01;100446.34;;;4.12;80.87
54920;BME280;63804;53.120;8.764;2024-01-06T00:41:29;100449.06;;;4.10;81.05
54920;BME280;63804;53.120;8.764;2024-01-06T00:43:57;100449.22;;;4.07;80.79
54920;BME280;63804;53.120;8.764;2024-01-06T00:46:25;100448.31;;;3.91;81.12
54920;BME280;63804;53.120;8.764;2024-01-06T00:48:53;100442.00;;;3.95;80.77
54920;BME280;63804;53.120;8.764;2024-01-06T00:51:21;100451.41;;;3.99;80.66
54920;BME280;63804;53.120;8.764;2024-01-06T00:53:49;100455.69;;;4.00;80.36
54920;BME280;63804;53.120;8.764;2024-01-06T00:56:17;100451.78;;;3.91;80.97
54920;BME280;63804;53.120;8.764;2024-01-06T00:58:45;100453.25;;;3.97;80.47
54920;BME280;63804;53.120;8.764;2024-01-06T01:01:13;100461.41;;;4.08;80.17
54920;BME280;63804;53.120;8.764;2024-01-06T01:03:41;100460.03;;;4.01;80.25
54920;BME280;63804;53.120;8.764;2024-01-06T01:06:09;100463.81;;;3.78;81.14
54920;BME280;63804;53.120;8.764;2024-01-06T01:08:37;100463.03;;;3.94;80.76
54920;BME280;63804;53.120;8.764;2024-01-06T01:11:05;100467.06;;;4.01;80.60
54920;BME280;63804;53.120;8.764;2024-01-06T01:13:33;100472.06;;;4.05;80.13
54920;BME280;63804;53.120;8.764;2024-01-06T01:16:01;100466.81;;;4.05;80.34
54920;BME280;63804;53.120;8.764;2024-01-06T01:18:30;100473.34;;;3.97;80.68
54920;BME280;63804;53.120;8.764;2024-01-06T01:20:58;100471.81;;;3.92;80.77
54920;BME280;63804;53.120;8.764;2024-01-06T01:23:27;100478.66;;;3.95;80.81
54920;BME280;63804;53.120;8.764;2024-01-06T01:25:55;100476.91;;;3.96;80.22
54920;BME280;63804;53.120;8.764;2024-01-06T01:28:23;100491.56;;;3.82;81.06
54920;BME280;63804;53.120;8.764;2024-01-06T01:30:51;100491.91;;;3.92;81.02
54920;BME280;63804;53.120;8.764;2024-01-06T01:33:19;100488.06;;;3.99;80.23
54920;BME280;63804;53.120;8.764;2024-01-06T01:35:47;100494.63;;;3.90;80.43
54920;BME280;63804;53.120;8.764;2024-01-06T01:38:15;100498.47;;;3.83;80.81
54920;BME280;63804;53.120;8.764;2024-01-06T01:40:43;100505.03;;;3.75;80.82
54920;BME280;63804;53.120;8.764;2024-01-06T01:43:18;100505.34;;;3.86;80.58
54920;BME280;63804;53.120;8.764;2024-01-06T01:45:51;100505.81;;;3.94;80.38
54920;BME280;63804;53.120;8.764;2024-01-06T01:48:21;100510.19;;;3.94;80.26
54920;BME280;63804;53.120;8.764;2024-01-06T01:50:51;100511.78;;;3.96;80.44
54920;BME280;63804;53.120;8.764;2024-01-06T01:53:22;100512.13;;;3.90;80.43
54920;BME280;63804;53.120;8.764;2024-01-06T01:55:52;100522.44;;;3.76;80.73
54920;BME280;63804;53.120;8.764;2024-01-06T01:58:20;100532.59;;;3.82;80.34
54920;BME280;63804;53.120;8.764;2024-01-06T02:00:48;100529.06;;;3.83;80.48
54920;BME280;63804;53.120;8.764;2024-01-06T02:03:16;100527.19;;;3.85;80.68
54920;BME280;63804;53.120;8.764;2024-01-06T02:05:45;100523.97;;;3.80;80.68
54920;BME280;63804;53.120;8.764;2024-01-06T02:08:13;100538.06;;;3.77;80.17
54920;BME280;63804;53.120;8.764;2024-01-06T02:10:41;100539.34;;;3.69;80.96
54920;BME280;63804;53.120;8.764;2024-01-06T02:13:12;100533.69;;;3.78;80.59
54920;BME280;63804;53.120;8.764;2024-01-06T02:15:40;100543.38;;;3.76;80.56
54920;BME280;63804;53.120;8.764;2024-01-06T02:18:08;100554.41;;;3.82;80.26
54920;BME280;63804;53.120;8.764;2024-01-06T02:20:37;100547.78;;;3.75;80.42
54920;BME280;63804;53.120;8.764;2024-01-06T02:23:05;100544.91;;;3.80;79.84
54920;BME280;63804;53.120;8.764;2024-01-06T02:25:33;100551.59;;;3.68;80.20
54920;BME280;63804;53.120;8.764;2024-01-06T02:28:01;100555.22;;;3.65;80.20
54920;BME280;63804;53.120;8.764;2024-01-06T02:30:29;100552.81;;;3.61;80.81
54920;BME280;63804;53.120;8.764;2024-01-06T02:32:57;100547.28;;;3.67;80.40
54920;BME280;63804;53.120;8.764;2024-01-06T02:35:25;100550.91;;;3.64;80.01
54920;BME280;63804;53.120;8.764;2024-01-06T02:37:53;100557.91;;;3.64;79.89
54920;BME280;63804;53.120;8.764;2024-01-06T02:40:21;100562.53;;;3.59;80.14
54920;BME280;63804;53.120;8.764;2024-01-06T02:42:49;100566.47;;;3.67;80.09
54920;BME280;63804;53.120;8.764;2024-01-06T02:45:17;100561.03;;;3.53;80.09
54920;BME280;63804;53.120;8.764;2024-01-06T02:47:45;100583.38;;;3.60;80.11
54920;BME280;63804;53.120;8.764;2024-01-06T02:50:13;100573.69;;;3.62;79.90
54920;BME280;63804;53.120;8.764;2024-01-06T02:52:41;100583.38;;;3.60;79.93
54920;BME280;63804;53.120;8.764;2024-01-06T02:55:09;100578.78;;;3.47;80.30
54920;BME280;63804;53.120;8.764;2024-01-06T02:57:37;100586.22;;;3.56;80.17
54920;BME280;63804;53.120;8.764;2024-01-06T03:00:06;100584.47;;;3.56;79.86
54920;BME280;63804;53.120;8.764;2024-01-06T03:02:35;100601.59;;;3.63;80.22
54920;BME280;63804;53.120;8.764;2024-01-06T03:05:04;100592.38;;;3.55;80.17
54920;BME280;63804;53.120;8.764;2024-01-06T03:07:32;100585.44;;;3.54;79.99
54920;BME280;63804;53.120;8.764;2024-01-06T03:10:00;100591.84;;;3.48;80.44
54920;BME280;63804;53.120;8.764;2024-01-06T03:12:29;100580.28;;;3.52;80.40
54920;BME280;63804;53.120;8.764;2024-01-06T03:14:57;100595.88;;;3.55;79.94
54920;BME280;63804;53.120;8.764;2024-01-06T03:17:25;100586.72;;;3.45;80.37
54920;BME280;63804;53.120;8.764;2024-01-06T03:19:53;100594.09;;;3.37;80.55
54920;BME280;63804;53.120;8.764;2024-01-06T03:22:21;100600.59;;;3.47;80.66
54920;BME280;63804;53.120;8.764;2024-01-06T03:24:48;100604.63;;;3.54;80.04
54920;BME280;63804;53.120;8.764;2024-01-06T03:27:16;100611.56;;;3.55;79.76
54920;BME280;63804;53.120;8.764;2024-01-06T03:29:44;100613.25;;;3.56;80.12
54920;BME280;63804;53.120;8.764;2024-01-06T03:32:12;100599.03;;;3.43;79.73
54920;BME280;63804;53.120;8.764;2024-01-06T03:34:41;100609.66;;;3.40;80.12
54920;BME280;63804;53.120;8.764;2024-01-06T03:37:09;100618.00;;;3.48;79.99
54920;BME280;63804;53.120;8.764;2024-01-06T03:39:37;100628.25;;;3.53;80.05
54920;BME280;63804;53.120;8.764;2024-01-06T03:42:05;100624.94;;;3.49;80.28
54920;BME280;63804;53.120;8.764;2024-01-06T03:44:33;100630.03;;;3.52;80.08
54920;BME280;63804;53.120;8.764;2024-01-06T03:47:01;100624.56;;;3.57;79.79
54920;BME280;63804;53.120;8.764;2024-01-06T03:49:29;100641.44;;;3.51;79.84
54920;BME280;63804;53.120;8.764;2024-01-06T03:51:57;100630.66;;;3.38;79.84
54920;BME280;63804;53.120;8.764;2024-01-06T03:54:25;100640.00;;;3.63;79.57
54920;BME280;63804;53.120;8.764;2024-01-06T03:56:53;100641.00;;;3.60;79.44
54920;BME280;63804;53.120;8.764;2024-01-06T03:59:21;100639.00;;;3.65;79.31
54920;BME280;63804;53.120;8.764;2024-01-06T04:01:49;100653.81;;;3.66;79.20
54920;BME280;63804;53.120;8.764;2024-01-06T04:04:17;100656.63;;;3.62;79.72
54920;BME280;63804;53.120;8.764;2024-01-06T04:06:45;100662.03;;;3.59;79.86
54920;BME280;63804;53.120;8.764;2024-01-06T04:09:13;100651.03;;;3.51;79.48
54920;BME280;63804;53.120;8.764;2024-01-06T04:11:44;100660.94;;;3.63;79.43
54920;BME280;63804;53.120;8.764;2024-01-06T04:14:12;100663.72;;;3.60;79.46
54920;BME280;63804;53.120;8.764;2024-01-06T04:16:40;100660.44;;;3.55;79.64
54920;BME280;63804;53.120;8.764;2024-01-06T04:19:08;100672.63;;;3.56;79.44
54920;BME280;63804;53.120;8.764;2024-01-06T04:21:36;100674.41;;;3.55;79.54
54920;BME280;63804;53.120;8.764;2024-01-06T04:24:04;100668.81;;;3.44;80.02
54920;BME280;63804;53.120;8.764;2024-01-06T04:26:32;100679.28;;;3.44;80.21
54920;BME280;63804;53.120;8.764;2024-01-06T04:29:00;100685.34;;;3.45;79.96
54920;BME280;63804;53.120;8.764;2024-01-06T04:31:29;100682.59;;;3.48;79.98
54920;BME280;63804;53.120;8.764;2024-01-06T04:33:57;100680.84;;;3.48;79.67
54920;BME280;63804;53.120;8.764;2024-01-06T04:36:25;100683.59;;;3.45;79.69
54920;BME280;63804;53.120;8.764;2024-01-06T04:38:53;100689.25;;;3.36;80.39
54920;BME280;63804;53.120;8.764;2024-01-06T04:41:21;100695.47;;;3.33;80.21
54920;BME280;63804;53.120;8.764;2024-01-06T04:43:49;100699.16;;;3.48;80.04
54920;BME280;63804;53.120;8.764;2024-01-06T04:46:17;100703.34;;;3.52;79.81
54920;BME280;63804;53.120;8.764;2024-01-06T04:48:44;100696.47;;;3.50;79.80
54920;BME280;63804;53.120;8.764;2024-01-06T04:51:12;100700.22;;;3.44;79.69
54920;BME280;63804;53.120;8.764;2024-01-06T04:53:41;100708.13;;;3.42;79.95
54920;BME280;63804;53.120;8.764;2024-01-06T04:56:09;100695.09;;;3.41;79.57
54920;BME280;63804;53.120;8.764;2024-01-06T04:58:37;100704.03;;;3.37;79.70
54920;BME280;63804;53.120;8.764;2024-01-06T05:01:05;100708.13;;;3.42;79.70
54920;BME280;63804;53.120;8.764;2024-01-06T05:03:33;100714.06;;;3.46;79.33
54920;BME280;63804;53.120;8.764;2024-01-06T05:06:01;100720.84;;;3.50;79.62
54920;BME280;63804;53.120;8.764;2024-01-06T05:08:29;100719.50;;;3.41;79.55
54920;BME280;63804;53.120;8.764;2024-01-06T05:10:59;100728.28;;;3.40;79.73
54920;BME280;63804;53.120;8.764;2024-01-06T05:13:26;100732.59;;;3.41;79.90
54920;BME280;63804;53.120;8.764;2024-01-06T05:15:54;100732.34;;;3.48;79.77
54920;BME280;63804;53.120;8.764;2024-01-06T05:18:22;100749.28;;;3.39;79.86
54920;BME280;63804;53.120;8.764;2024-01-06T05:20:50;100742.69;;;3.30;80.12
54920;BME280;63804;53.120;8.764;2024-01-06T05:23:18;100751.97;;;3.37;80.04
54920;BME280;63804;53.120;8.764;2024-01-06T05:25:46;100757.34;;;3.34;79.87
54920;BME280;63804;53.120;8.764;2024-01-06T05:28:14;100757.97;;;3.39;79.74
54920;BME280;63804;53.120;8.764;2024-01-06T05:30:42;100765.69;;;3.42;79.49
54920;BME280;63804;53.120;8.764;2024-01-06T05:33:10;100771.47;;;3.30;79.73
54920;BME280;63804;53.120;8.764;2024-01-06T05:35:41;100765.00;;;3.18;80.37
54920;BME280;63804;53.120;8.764;2024-01-06T05:38:09;100775.66;;;3.34;79.99
54920;BME280;63804;53.120;8.764;2024-01-06T05:40:37;100773.44;;;3.25;80.12
54920;BME280;63804;53.120;8.764;2024-01-06T05:43:05;100775.66;;;3.34;79.81
54920;BME280;63804;53.120;8.764;2024-01-06T05:45:33;100781.69;;;3.36;79.67
54920;BME280;63804;53.120;8.764;2024-01-06T05:48:01;100786.63;;;3.42;79.48
54920;BME280;63804;53.120;8.764;2024-01-06T05:50:30;100796.72;;;3.31;79.55
54920;BME280;63804;53.120;8.764;2024-01-06T05:52:58;100802.56;;;3.17;80.26
54920;BME280;63804;53.120;8.764;2024-01-06T05:55:25;100799.16;;;3.15;80.28
54920;BME280;63804;53.120;8.764;2024-01-06T05:57:53;100802.16;;;3.27;80.20
54920;BME280;63804;53.120;8.764;2024-01-06T06:00:21;100814.59;;;3.22;79.73
54920;BME280;63804;53.120;8.764;2024-01-06T06:02:49;100819.63;;;3.26;80.17
54920;BME280;63804;53.120;8.764;2024-01-06T06:05:17;100828.41;;;3.25;80.23
54920;BME280;63804;53.120;8.764;2024-01-06T06:07:45;100823.09;;;3.27;79.96
54920;BME280;63804;53.120;8.764;2024-01-06T06:10:13;100825.38;;;3.34;79.37
54920;BME280;63804;53.120;8.764;2024-01-06T06:12:44;100831.88;;;3.26;79.63
54920;BME280;63804;53.120;8.764;2024-01-06T06:15:12;100832.78;;;3.25;79.77
54920;BME280;63804;53.120;8.764;2024-01-06T06:17:41;100838.28;;;3.18;79.83
54920;BME280;63804;53.120;8.764;2024-01-06T06:20:09;100837.63;;;3.13;79.94
54920;BME280;63804;53.120;8.764;2024-01-06T06:22:37;100847.50;;;3.27;79.70
54920;BME280;63804;53.120;8.764;2024-01-06T06:25:05;100851.16;;;3.23;79.73
54920;BME280;63804;53.120;8.764;2024-01-06T06:27:33;100846.97;;;3.19;79.74
54920;BME280;63804;53.120;8.764;2024-01-06T06:30:02;100858.75;;;3.29;79.71
54920;BME280;63804;53.120;8.764;2024-01-06T06:32:30;100868.63;;;3.23;80.05
54920;BME280;63804;53.120;8.764;2024-01-06T06:34:58;100867.91;;;3.19;79.63
54920;BME280;63804;53.120;8.764;2024-01-06T06:37:26;100867.16;;;3.15;80.03
54920;BME280;63804;53.120;8.764;2024-01-06T06:39:54;100869.47;;;3.23;79.72
54920;BME280;63804;53.120;8.764;2024-01-06T06:42:21;100869.66;;;3.18;79.94
54920;BME280;63804;53.120;8.764;2024-01-06T06:44:49;100883.34;;;3.25;79.54
54920;BME280;63804;53.120;8.764;2024-01-06T06:47:17;100885.78;;;3.30;79.11
54920;BME280;63804;53.120;8.764;2024-01-06T06:49:47;100896.16;;;3.31;79.09
54920;BME280;63804;53.120;8.764;2024-01-06T06:52:14;100901.25;;;3.36;79.12
54920;BME280;63804;53.120;8.764;2024-01-06T06:54:42;100905.13;;;3.26;78.83
54920;BME280;63804;53.120;8.764;2024-01-06T06:57:10;100909.00;;;3.17;79.47
54920;BME280;63804;53.120;8.764;2024-01-06T06:59:39;100920.19;;;3.21;79.62
54920;BME280;63804;53.120;8.764;2024-01-06T07:02:07;100919.38;;;3.18;79.28
54920;BME280;63804;53.120;8.764;2024-01-06T07:04:35;100914.75;;;3.03;79.65
54920;BME280;63804;53.120;8.764;2024-01-06T07:07:03;100919.03;;;3.06;80.56
54920;BME280;63804;53.120;8.764;2024-01-06T07:09:31;100930.47;;;3.03;80.45
54920;BME280;63804;53.120;8.764;2024-01-06T07:11:59;100921.75;;;3.03;80.21
54920;BME280;63804;53.120;8.764;2024-01-06T07:14:26;100930.28;;;3.08;80.32
54920;BME280;63804;53.120;8.764;2024-01-06T07:16:54;100931.00;;;3.11;79.97
54920;BME280;63804;53.120;8.764;2024-01-06T07:19:22;100929.31;;;3.10;79.71
54920;BME280;63804;53.120;8.764;2024-01-06T07:21:50;100938.13;;;3.08;80.04
54920;BME280;63804;53.120;8.764;2024-01-06T07:24:18;100945.19;;;3.06;80.46
54920;BME280;63804;53.120;8.764;2024-01-06T07:26:46;100934.88;;;3.01;80.24
54920;BME280;63804;53.120;8.764;2024-01-06T07:29:14;100944.56;;;2.99;79.87
54920;BME280;63804;53.120;8.764;2024-01-06T07:31:42;100953.19;;;3.01;80.29
54920;BME280;63804;53.120;8.764;2024-01-06T07:34:10;100962.06;;;2.97;80.48
54920;BME280;63804;53.120;8.764;2024-01-06T07:36:38;100957.94;;;2.91;80.86
54920;BME280;63804;53.120;8.764;2024-01-06T07:39:07;100966.28;;;3.01;80.39
54920;BME280;63804;53.120;8.764;2024-01-06T07:41:35;100968.53;;;2.88;80.39
54920;BME280;63804;53.120;8.764;2024-01-06T07:44:03;100976.88;;;2.98;80.20
54920;BME280;63804;53.120;8.764;2024-01-06T07:46:31;100983.75;;;3.01;79.92
54920;BME280;63804;53.120;8.764;2024-01-06T07:48:59;100984.25;;;3.10;79.84
54920;BME280;63804;53.120;8.764;2024-01-06T07:51:28;100997.22;;;3.13;79.68
54920;BME280;63804;53.120;8.764;2024-01-06T07:53:56;100998.53;;;3.02;79.78
54920;BME280;63804;53.120;8.764;2024-01-06T07:56:24;100990.41;;;2.86;80.16
54920;BME280;63804;53.120;8.764;2024-01-06T07:58:52;100994.91;;;2.82;80.15
54920;BME280;63804;53.120;8.764;2024-01-06T08:01:22;101006.44;;;3.00;79.83
54920;BME280;63804;53.120;8.764;2024-01-06T08:03:50;101003.59;;;3.06;79.67
54920;BME280;63804;53.120;8.764;2024-01-06T08:06:19;101009.56;;;3.10;79.36
54920;BME280;63804;53.120;8.764;2024-01-06T08:08:47;101015.97;;;3.01;79.60
54920;BME280;63804;53.120;8.764;2024-01-06T08:11:15;101027.06;;;3.08;79.35
54920;BME280;63804;53.120;8.764;2024-01-06T08:13:43;101022.47;;;3.14;79.18
54920;BME280;63804;53.120;8.764;2024-01-06T08:16:11;101042.34;;;3.18;79.04
54920;BME280;63804;53.120;8.764;2024-01-06T08:18:39;101046.00;;;3.14;79.09
54920;BME280;63804;53.120;8.764;2024-01-06T08:21:07;101052.19;;;3.12;79.57
54920;BME280;63804;53.120;8.764;2024-01-06T08:23:35;101050.13;;;2.98;79.58
54920;BME280;63804;53.120;8.764;2024-01-06T08:26:04;101057.06;;;2.99;79.97
54920;BME280;63804;53.120;8.764;2024-01-06T08:28:35;101063.88;;;3.03;79.67
54920;BME280;63804;53.120;8.764;2024-01-06T08:31:03;101068.06;;;3.07;79.36
54920;BME280;63804;53.120;8.764;2024-01-06T08:33:32;101063.75;;;3.06;79.34
54920;BME280;63804;53.120;8.764;2024-01-06T08:36:00;101071.38;;;3.12;79.38
54920;BME280;63804;53.120;8.764;2024-01-06T08:38:28;101068.53;;;3.18;78.94
54920;BME280;63804;53.120;8.764;2024-01-06T08:40:56;101085.03;;;3.21;78.89
54920;BME280;63804;53.120;8.764;2024-01-06T08:43:24;101077.06;;;3.00;79.25
54920;BME280;63804;53.120;8.764;2024-01-06T08:45:52;101079.75;;;2.99;79.61
54920;BME280;63804;53.120;8.764;2024-01-06T08:48:20;101092.25;;;3.14;78.98
54920;BME280;63804;53.120;8.764;2024-01-06T08:50:49;101074.88;;;3.13;79.01
54920;BME280;63804;53.120;8.764;2024-01-06T08:53:17;101087.94;;;3.13;78.38
54920;BME280;63804;53.120;8.764;2024-01-06T08:55:45;101095.66;;;3.16;78.61
54920;BME280;63804;53.120;8.764;2024-01-06T08:58:14;101102.38;;;3.00;78.76
54920;BME280;63804;53.120;8.764;2024-01-06T09:00:42;101100.44;;;3.05;78.60
54920;BME280;63804;53.120;8.764;2024-01-06T09:03:10;101095.06;;;3.09;78.76
54920;BME280;63804;53.120;8.764;2024-01-06T09:05:40;101106.00;;;3.19;78.44
54920;BME280;63804;53.120;8.764;2024-01-06T09:08:08;101106.00;;;3.19;78.25
54920;BME280;63804;53.120;8.764;2024-01-06T09:10:36;101110.22;;;3.23;78.22
54920;BME280;63804;53.120;8.764;2024-01-06T09:13:04;101118.88;;;3.25;77.33
54920;BME280;63804;53.120;8.764;2024-01-06T09:15:32;101121.22;;;3.09;77.87
54920;BME280;63804;53.120;8.764;2024-01-06T09:18:00;101124.50;;;3.14;77.95
54920;BME280;63804;53.120;8.764;2024-01-06T09:20:28;101131.59;;;3.11;77.93
54920;BME280;63804;53.120;8.764;2024-01-06T09:22:56;101132.34;;;3.14;78.10
54920;BME280;63804;53.120;8.764;2024-01-06T09:25:24;101133.59;;;3.04;77.93
54920;BME280;63804;53.120;8.764;2024-01-06T09:27:52;101136.78;;;3.12;78.01
54920;BME280;63804;53.120;8.764;2024-01-06T09:30:21;101135.56;;;2.98;77.90
54920;BME280;63804;53.120;8.764;2024-01-06T09:32:49;101152.16;;;2.98;78.21
54920;BME280;63804;53.120;8.764;2024-01-06T09:35:17;101156.06;;;3.10;78.09
54920;BME280;63804;53.120;8.764;2024-01-06T09:37:45;101153.19;;;3.17;78.12
54920;BME280;63804;53.120;8.764;2024-01-06T09:40:13;101159.31;;;3.16;77.87
54920;BME280;63804;53.120;8.764;2024-01-06T09:42:41;101164.44;;;3.20;77.81
54920;BME280;63804;53.120;8.764;2024-01-06T09:45:09;101161.50;;;3.04;77.75
54920;BME280;63804;53.120;8.764;2024-01-06T09:47:40;101182.84;;;3.16;77.72
54920;BME280;63804;53.120;8.764;2024-01-06T09:50:09;101183.19;;;3.32;77.49
54920;BME280;63804;53.120;8.764;2024-01-06T09:52:40;101181.16;;;3.39;77.06
54920;BME280;63804;53.120;8.764;2024-01-06T09:55:11;101187.81;;;3.24;76.74
54920;BME280;63804;53.120;8.764;2024-01-06T09:57:39;101191.25;;;3.26;77.50
54920;BME280;63804;53.120;8.764;2024-01-06T10:00:07;101188.91;;;3.18;77.31
54920;BME280;63804;53.120;8.764;2024-01-06T10:02:38;101194.97;;;3.19;77.31
54920;BME280;63804;53.120;8.764;2024-01-06T10:05:08;101201.16;;;3.16;77.19
54920;BME280;63804;53.120;8.764;2024-01-06T10:07:37;101195.78;;;3.21;77.02
54920;BME280;63804;53.120;8.764;2024-01-06T10:10:07;101201.22;;;3.15;77.35
54920;BME280;63804;53.120;8.764;2024-01-06T10:12:37;101215.59;;;3.28;76.82
54920;BME280;63804;53.120;8.764;2024-01-06T10:15:06;101213.25;;;3.21;77.12
54920;BME280;63804;53.120;8.764;2024-01-06T10:17:38;101209.09;;;3.15;77.08
54920;BME280;63804;53.120;8.764;2024-01-06T10:20:11;101218.81;;;3.35;76.81
54920;BME280;63804;53.120;8.764;2024-01-06T10:22:42;101219.09;;;3.27;77.06
54920;BME280;63804;53.120;8.764;2024-01-06T10:25:10;101211.22;;;3.29;76.69
54920;BME280;63804;53.120;8.764;2024-01-06T10:27:40;101223.19;;;3.36;76.85
54920;BME280;63804;53.120;8.764;2024-01-06T10:30:09;101225.44;;;3.22;77.24
54920;BME280;63804;53.120;8.764;2024-01-06T10:32:39;101225.91;;;3.33;77.04
54920;BME280;63804;53.120;8.764;2024-01-06T10:35:07;101234.78;;;3.29;76.67
54920;BME280;63804;53.120;8.764;2024-01-06T10:37:35;101241.34;;;3.15;76.67
54920;BME280;63804;53.120;8.764;2024-01-06T10:40:11;101240.84;;;3.29;76.50
54920;BME280;63804;53.120;8.764;2024-01-06T10:42:40;101227.69;;;3.31;76.46
54920;BME280;63804;53.120;8.764;2024-01-06T10:45:12;101238.63;;;3.18;76.49
54920;BME280;63804;53.120;8.764;2024-01-06T10:47:41;101236.38;;;3.33;76.55
54920;BME280;63804;53.120;8.764;2024-01-06T10:50:11;101240.75;;;3.32;75.94
54920;BME280;63804;53.120;8.764;2024-01-06T10:52:40;101237.16;;;3.35;76.27
54920;BME280;63804;53.120;8.764;2024-01-06T10:55:09;101238.81;;;3.37;76.19
54920;BME280;63804;53.120;8.764;2024-01-06T10:57:41;101254.19;;;3.47;76.05
54920;BME280;63804;53.120;8.764;2024-01-06T11:00:11;101244.59;;;3.22;75.88
54920;BME280;63804;53.120;8.764;2024-01-06T11:02:39;101259.66;;;3.15;76.23
54920;BME280;63804;53.120;8.764;2024-01-06T11:05:08;101255.81;;;3.26;75.70
54920;BME280;63804;53.120;8.764;2024-01-06T11:07:39;101256.84;;;3.22;75.37
54920;BME280;63804;53.120;8.764;2024-01-06T11:10:14;101263.84;;;3.21;75.43
54920;BME280;63804;53.120;8.764;2024-01-06T11:13:06;101268.63;;;3.33;74.69
54920;BME280;63804;53.120;8.764;2024-01-06T11:15:41;101263.44;;;3.32;75.39
54920;BME280;63804;53.120;8.764;2024-01-06T11:18:10;101267.72;;;3.34;75.34
54920;BME280;63804;53.120;8.764;2024-01-06T11:24:14;101260.22;;;3.24;74.68
54920;BME280;63804;53.120;8.764;2024-01-06T11:26:47;101265.88;;;3.13;75.24
54920;BME280;63804;53.120;8.764;2024-01-06T11:29:18;101256.22;;;2.88;76.25
54920;BME280;63804;53.120;8.764;2024-01-06T11:32:18;101274.81;;;3.06;75.49
54920;BME280;63804;53.120;8.764;2024-01-06T11:34:50;101272.22;;;2.79;76.81
54920;BME280;63804;53.120;8.764;2024-01-06T11:37:23;101266.22;;;3.02;76.88
54920;BME280;63804;53.120;8.764;2024-01-06T11:39:51;101279.25;;;3.04;76.28
54920;BME280;63804;53.120;8.764;2024-01-06T11:42:21;101277.63;;;3.00;76.67
54920;BME280;63804;53.120;8.764;2024-01-06T11:44:51;101281.16;;;3.24;75.87
54920;BME280;63804;53.120;8.764;2024-01-06T11:47:19;101273.53;;;3.17;75.82
54920;BME280;63804;53.120;8.764;2024-01-06T11:49:54;101274.69;;;3.09;75.88
54920;BME280;63804;53.120;8.764;2024-01-06T11:52:23;101286.72;;;3.14;76.50
54920;BME280;63804;53.120;8.764;2024-01-06T11:54:54;101285.06;;;3.12;76.58
54920;BME280;63804;53.120;8.764;2024-01-06T11:57:23;101291.16;;;3.12;76.66
54920;BME280;63804;53.120;8.764;2024-01-06T11:59:51;101290.88;;;2.95;76.53
54920;BME280;63804;53.120;8.764;2024-01-06T12:02:19;101288.94;;;3.00;76.64
54920;BME280;63804;53.120;8.764;2024-01-06T12:04:51;101295.63;;;3.09;76.31
54920;BME280;63804;53.120;8.764;2024-01-06T12:07:20;101283.81;;;2.97;76.68
54920;BME280;63804;53.120;8.764;2024-01-06T12:10:01;101298.97;;;3.14;76.13
54920;BME280;63804;53.120;8.764;2024-01-06T12:12:30;101304.63;;;3.02;76.11
54920;BME280;63804;53.120;8.764;2024-01-06T12:14:58;101304.72;;;2.99;76.59
54920;BME280;63804;53.120;8.764;2024-01-06T12:17:30;101313.25;;;3.04;76.49
54920;BME280;63804;53.120;8.764;2024-01-06T12:19:59;101302.19;;;2.96;76.39
54920;BME280;63804;53.120;8.764;2024-01-06T12:22:29;101303.88;;;2.98;76.34
54920;BME280;63804;53.120;8.764;2024-01-06T12:24:58;101296.97;;;2.96;76.10
54920;BME280;63804;53.120;8.764;2024-01-06T12:27:26;101300.44;;;2.96;76.83
54920;BME280;63804;53.120;8.764;2024-01-06T12:29:54;101303.53;;;3.07;76.14
54920;BME280;63804;53.120;8.764;2024-01-06T12:32:23;101303.63;;;3.04;75.93
54920;BME280;63804;53.120;8.764;2024-01-06T12:34:51;101307.16;;;3.03;76.21
54920;BME280;63804;53.120;8.764;2024-01-06T12:37:19;101308.94;;;3.03;76.42
54920;BME280;63804;53.120;8.764;2024-01-06T12:39:47;101309.78;;;3.03;76.26
54920;BME280;63804;53.120;8.764;2024-01-06T12:42:15;101302.94;;;2.99;76.40
54920;BME280;63804;53.120;8.764;2024-01-06T12:44:44;101313.59;;;2.93;76.50
54920;BME280;63804;53.120;8.764;2024-01-06T12:47:12;101312.25;;;3.08;75.89
54920;BME280;63804;53.120;8.764;2024-01-06T12:49:41;101317.94;;;2.94;76.30
54920;BME280;63804;53.120;8.764;2024-01-06T12:52:09;101316.38;;;2.88;76.72
54920;BME280;63804;53.120;8.764;2024-01-06T12:54:39;101309.22;;;2.67;76.88
54920;BME280;63804;53.120;8.764;2024-01-06T12:57:08;101321.16;;;2.76;77.25
54920;BME280;63804;53.120;8.764;2024-01-06T12:59:36;101320.59;;;2.92;76.93
54920;BME280;63804;53.120;8.764;2024-01-06T13:02:04;101320.84;;;2.85;77.03
54920;BME280;63804;53.120;8.764;2024-01-06T13:04:32;101317.72;;;2.74;77.27
54920;BME280;63804;53.120;8.764;2024-01-06T13:07:00;101321.66;;;2.87;76.93
54920;BME280;63804;53.120;8.764;2024-01-06T13:09:30;101330.63;;;2.80;77.18
54920;BME280;63804;53.120;8.764;2024-01-06T13:11:59;101334.84;;;2.84;77.06